Time;durP1;ratioP1;P1;durP2;ratioP2;P2;SDS_P1;SDS_P2;PMS_P1;PMS_P2;Temp;Humidity;BMP_temperature;BMP_pressure;BME280_temperature;BME280_humidity;BME280_pressure;Samples;Min_cycle;Max_cycle;Signal;HPM_P1;HPM_P2
2021/11/11 00:02:49;;;;;;;;;;;15.80;40.80;;;;;;8366049;28;20324;-48
2021/11/11 00:06:50;;;;;;;;;;;15.80;40.80;;;;;;8366373;28;20012;-48
2021/11/11 00:10:51;;;;;;;;;;;15.80;40.80;;;;;;8366657;28;19924;-48
2021/11/11 00:14:52;;;;;;;;;;;15.80;40.80;;;;;;8365757;28;19928;-52
2021/11/11 00:18:52;;;;;;;;;;;15.80;40.80;;;;;;8366179;28;20318;-49
2021/11/11 00:22:53;;;;;;;;;;;15.80;40.80;;;;;;8365976;28;19924;-49
2021/11/11 00:26:53;;;;;;;;;;;15.80;40.80;;;;;;8365418;28;19935;-48
2021/11/11 00:30:54;;;;;;;;;;;15.80;40.80;;;;;;8366012;28;19967;-51
2021/11/11 00:34:54;;;;;;;;;;;15.80;40.80;;;;;;8365546;28;19917;-52
2021/11/11 00:38:55;;;;;;;;;;;15.80;40.80;;;;;;8365068;28;19975;-48
2021/11/11 00:42:56;;;;;;;;;;;15.80;40.80;;;;;;8365999;28;19928;-50
2021/11/11 00:46:57;;;;;;;;;;;15.80;40.80;;;;;;8364623;28;19931;-50
2021/11/11 00:50:58;;;;;;;;;;;15.80;40.80;;;;;;8364902;28;20007;-48
2021/11/11 00:54:59;;;;;;;;;;;15.80;40.80;;;;;;8364819;28;19927;-48
2021/11/11 00:58:59;;;;;;;;;;;15.80;40.80;;;;;;8364743;28;20381;-50
2021/11/11 01:03:00;;;;;;;;;;;15.80;40.80;;;;;;8364358;28;19924;-48
2021/11/11 01:07:00;;;;;;;;;;;15.80;40.80;;;;;;8364531;28;20054;-49
2021/11/11 01:11:03;;;;;;;;;;;15.80;40.80;;;;;;8364852;28;19923;-53
2021/11/11 01:15:05;;;;;;;;;;;15.80;40.80;;;;;;8364147;28;19962;-52
2021/11/11 01:19:05;;;;;;;;;;;15.80;40.80;;;;;;8364790;28;19956;-50
2021/11/11 01:23:06;;;;;;;;;;;15.80;40.80;;;;;;8364382;28;19917;-49
2021/11/11 01:27:08;;;;;;;;;;;15.80;40.80;;;;;;8363280;28;19987;-50
2021/11/11 01:31:08;;;;;;;;;;;15.80;40.80;;;;;;8364499;28;19913;-49
2021/11/11 01:35:09;;;;;;;;;;;15.80;40.90;;;;;;8364060;28;19917;-49
2021/11/11 01:39:09;;;;;;;;;;;15.80;40.90;;;;;;8363343;28;19952;-53
2021/11/11 01:43:10;;;;;;;;;;;15.80;40.90;;;;;;8363788;28;19927;-49
2021/11/11 01:47:11;;;;;;;;;;;15.80;40.90;;;;;;8363710;28;19933;-53
2021/11/11 01:51:11;;;;;;;;;;;15.80;40.90;;;;;;8363393;28;20381;-49
2021/11/11 01:55:12;;;;;;;;;;;15.80;40.80;;;;;;8363204;28;19920;-49
2021/11/11 01:59:13;;;;;;;;;;;15.80;40.80;;;;;;8367623;28;20279;-54
2021/11/11 02:03:14;;;;;;;;;;;15.70;40.80;;;;;;8370012;28;20282;-49
2021/11/11 02:07:16;;;;;;;;;;;15.80;41.00;;;;;;8369546;28;19928;-50
2021/11/11 02:11:16;;;;;;;;;;;15.80;40.80;;;;;;8370621;28;19978;-49
2021/11/11 02:15:18;;;;;;;;;;;15.70;40.80;;;;;;8369632;28;19921;-49
2021/11/11 02:19:20;;;;;;;;;;;15.70;40.80;;;;;;8369940;28;19917;-48
2021/11/11 02:23:21;;;;;;;;;;;15.80;40.90;;;;;;8369380;28;19960;-52
2021/11/11 02:27:22;;;;;;;;;;;15.70;40.80;;;;;;8369978;28;20000;-52
2021/11/11 02:31:22;;;;;;;;;;;15.70;40.80;;;;;;8370063;28;19967;-50
2021/11/11 02:35:23;;;;;;;;;;;15.70;40.80;;;;;;8369266;28;20370;-54
2021/11/11 02:39:28;;;;;;;;;;;15.70;40.80;;;;;;8369331;28;19917;-54
2021/11/11 02:43:28;;;;;;;;;;;15.70;40.90;;;;;;8369175;28;20362;-49
2021/11/11 02:47:29;;;;;;;;;;;15.70;40.90;;;;;;8368566;28;19996;-49
2021/11/11 02:51:29;;;;;;;;;;;15.70;40.80;;;;;;8369011;28;19913;-49
2021/11/11 02:55:30;;;;;;;;;;;15.70;40.80;;;;;;8368497;28;19936;-49
2021/11/11 02:59:34;;;;;;;;;;;15.70;40.80;;;;;;8368217;28;19928;-49
2021/11/11 03:03:34;;;;;;;;;;;15.70;40.80;;;;;;8368729;28;19921;-49
2021/11/11 03:07:35;;;;;;;;;;;15.70;40.90;;;;;;8368465;28;20039;-50
2021/11/11 03:11:37;;;;;;;;;;;15.70;40.90;;;;;;8367442;28;20004;-49
2021/11/11 03:15:38;;;;;;;;;;;15.70;40.90;;;;;;8368498;28;20385;-48
2021/11/11 03:19:39;;;;;;;;;;;15.70;40.80;;;;;;8367956;28;19931;-48
2021/11/11 03:23:39;;;;;;;;;;;15.70;40.80;;;;;;8367482;28;19917;-48
2021/11/11 03:27:40;;;;;;;;;;;15.70;40.90;;;;;;8367927;28;19921;-48
2021/11/11 03:31:41;;;;;;;;;;;15.70;40.90;;;;;;8367814;28;19970;-48
2021/11/11 03:35:41;;;;;;;;;;;15.70;40.90;;;;;;8367029;28;19994;-48
2021/11/11 03:39:43;;;;;;;;;;;15.70;40.80;;;;;;8367627;28;20298;-50
2021/11/11 03:43:43;;;;;;;;;;;15.70;40.80;;;;;;8367203;28;19970;-50
2021/11/11 03:47:44;;;;;;;;;;;15.70;40.80;;;;;;8366624;28;19921;-48
2021/11/11 03:51:45;;;;;;;;;;;15.70;40.90;;;;;;8367262;28;19913;-49
2021/11/11 03:55:45;;;;;;;;;;;15.70;40.90;;;;;;8366720;28;20007;-48
2021/11/11 03:59:46;;;;;;;;;;;15.60;40.90;;;;;;8366337;28;19921;-48
2021/11/11 04:03:46;;;;;;;;;;;15.70;40.90;;;;;;8366717;28;19917;-49
2021/11/11 04:07:47;;;;;;;;;;;15.60;40.80;;;;;;8366470;28;20332;-49
2021/11/11 04:11:48;;;;;;;;;;;15.70;40.90;;;;;;8366202;28;20392;-48
2021/11/11 04:15:48;;;;;;;;;;;15.70;40.90;;;;;;8366351;28;19916;-49
2021/11/11 04:19:49;;;;;;;;;;;15.60;40.90;;;;;;8366509;28;19917;-49
2021/11/11 04:23:51;;;;;;;;;;;15.60;40.90;;;;;;8364461;28;19917;-49
2021/11/11 04:28:17;;;;;;;;;;;15.70;40.90;;;;;;8366315;28;19933;-48
2021/11/11 04:32:16;;;;;;;;;;;15.70;40.90;;;;;;8365971;28;19931;-48
2021/11/11 04:36:44;;;;;;;;;;;15.70;40.90;;;;;;8365176;28;19921;-49
2021/11/11 04:41:07;;;;;;;;;;;15.70;40.90;;;;;;8365432;28;20408;-48
2021/11/11 04:45:36;;;;;;;;;;;15.60;40.80;;;;;;8364975;28;19931;-49
2021/11/11 05:02:55;;;;;;;;;;;15.70;40.80;;;;;;8364203;28;19988;-49
2021/11/11 05:06:33;;;;;;;;;;;15.70;40.80;;;;;;8333488;28;19979;-49
2021/11/11 05:10:34;;;;;;;;;;;15.70;40.80;;;;;;8364634;28;19917;-49
2021/11/11 05:14:35;;;;;;;;;;;15.70;40.80;;;;;;8364059;28;19913;-49
2021/11/11 05:18:35;;;;;;;;;;;15.70;40.90;;;;;;8364837;28;20285;-49
2021/11/11 05:22:36;;;;;;;;;;;15.70;40.80;;;;;;8364624;28;20382;-49
2021/11/11 05:26:37;;;;;;;;;;;15.70;40.80;;;;;;8363728;28;19932;-49
2021/11/11 05:30:38;;;;;;;;;;;15.70;40.80;;;;;;8364727;28;20269;-49
2021/11/11 05:34:38;;;;;;;;;;;15.70;40.80;;;;;;8363754;28;19913;-50
2021/11/11 05:38:39;;;;;;;;;;;15.70;40.90;;;;;;8363491;28;20392;-49
2021/11/11 05:42:40;;;;;;;;;;;15.70;40.90;;;;;;8363962;28;19986;-52
2021/11/11 05:46:40;;;;;;;;;;;15.70;40.90;;;;;;8363779;28;20263;-52
2021/11/11 05:50:41;;;;;;;;;;;15.70;40.80;;;;;;8363103;28;19917;-49
2021/11/11 05:54:41;;;;;;;;;;;15.70;40.90;;;;;;8363512;28;19928;-51
2021/11/11 05:58:41;;;;;;;;;;;15.70;40.90;;;;;;8363615;28;19913;-49
2021/11/11 06:02:45;;;;;;;;;;;15.70;40.90;;;;;;8363449;28;19928;-48
2021/11/11 06:06:46;;;;;;;;;;;15.60;40.90;;;;;;8363498;28;19929;-49
2021/11/11 06:10:46;;;;;;;;;;;15.60;40.90;;;;;;8363612;28;19970;-49
2021/11/11 06:14:47;;;;;;;;;;;15.60;40.90;;;;;;8363051;28;19917;-50
2021/11/11 06:18:48;;;;;;;;;;;15.60;40.90;;;;;;8363292;28;19912;-49
2021/11/11 06:22:49;;;;;;;;;;;15.60;40.90;;;;;;8363301;28;19913;-49
2021/11/11 06:26:50;;;;;;;;;;;15.60;40.90;;;;;;8362757;28;19925;-48
2021/11/11 06:30:50;;;;;;;;;;;15.60;40.90;;;;;;8363033;28;19991;-49
2021/11/11 06:34:51;;;;;;;;;;;15.60;41.00;;;;;;8362998;28;20015;-48
2021/11/11 06:38:51;;;;;;;;;;;15.60;41.40;;;;;;8362614;28;19921;-48
2021/11/11 06:42:52;;;;;;;;;;;15.60;40.90;;;;;;8363002;28;19948;-49
2021/11/11 06:46:52;;;;;;;;;;;15.60;40.90;;;;;;8367567;28;20290;-48
2021/11/11 06:50:53;;;;;;;;;;;15.60;40.90;;;;;;8368565;28;20404;-52
2021/11/11 06:54:53;;;;;;;;;;;15.60;40.90;;;;;;8371269;28;19920;-53
2021/11/11 06:58:54;;;;;;;;;;;15.60;41.40;;;;;;8372469;28;20369;-53
2021/11/11 07:02:54;;;;;;;;;;;15.60;40.90;;;;;;8367815;28;20358;-55
2021/11/11 07:06:54;;;;;;;;;;;15.60;40.90;;;;;;8368221;28;20298;-53
2021/11/11 07:10:55;;;;;;;;;;;15.60;40.90;;;;;;8368349;28;19921;-51
2021/11/11 07:14:56;;;;;;;;;;;15.60;40.90;;;;;;8367828;28;20008;-50
2021/11/11 07:18:56;;;;;;;;;;;15.60;40.90;;;;;;8367722;28;19967;-52
2021/11/11 07:23:00;;;;;;;;;;;15.60;40.90;;;;;;8368104;28;20422;-52
2021/11/11 07:27:01;;;;;;;;;;;15.60;40.90;;;;;;8367303;28;19928;-50
2021/11/11 07:31:02;;;;;;;;;;;15.60;40.90;;;;;;8367958;28;19916;-49
2021/11/11 07:35:03;;;;;;;;;;;15.60;40.90;;;;;;8367766;28;19917;-48
2021/11/11 07:39:04;;;;;;;;;;;15.60;40.90;;;;;;8367400;28;19913;-47
2021/11/11 07:43:05;;;;;;;;;;;15.60;40.90;;;;;;8367162;28;19923;-49
2021/11/11 07:47:05;;;;;;;;;;;15.60;40.90;;;;;;8367213;28;20301;-53
2021/11/11 07:51:06;;;;;;;;;;;15.60;40.90;;;;;;8366678;28;19924;-51
2021/11/11 07:55:07;;;;;;;;;;;15.60;40.90;;;;;;8367054;28;19922;-49
2021/11/11 07:59:09;;;;;;;;;;;15.60;40.90;;;;;;8367055;28;20404;-52
2021/11/11 08:03:10;;;;;;;;;;;15.60;41.00;;;;;;8366506;28;19917;-51
2021/11/11 08:07:11;;;;;;;;;;;15.60;40.90;;;;;;8348359;28;20059;-50
2021/11/11 08:11:12;;;;;;;;;;;15.60;40.90;;;;;;8348525;28;19951;-48
2021/11/11 08:15:14;;;;;;;;;;;15.60;40.80;;;;;;8366218;28;19996;-51
2021/11/11 08:19:15;;;;;;;;;;;15.60;40.80;;;;;;8366800;28;20003;-49
2021/11/11 08:23:16;;;;;;;;;;;15.60;40.80;;;;;;8366208;28;19924;-49
2021/11/11 08:27:17;;;;;;;;;;;15.60;40.80;;;;;;8365489;28;19951;-50
2021/11/11 08:31:17;;;;;;;;;;;15.60;40.80;;;;;;8366045;28;19955;-49
2021/11/11 08:35:18;;;;;;;;;;;15.60;40.80;;;;;;8365689;28;19937;-49
2021/11/11 08:39:19;;;;;;;;;;;15.60;40.80;;;;;;8365460;28;19913;-49
2021/11/11 08:43:19;;;;;;;;;;;15.70;40.90;;;;;;8365581;28;20130;-49
2021/11/11 08:47:20;;;;;;;;;;;15.60;40.80;;;;;;8364852;28;20378;-47
2021/11/11 08:51:21;;;;;;;;;;;15.70;40.90;;;;;;8365216;28;20388;-48
2021/11/11 08:55:26;;;;;;;;;;;15.70;40.80;;;;;;8364899;28;20316;-49
2021/11/11 08:59:26;;;;;;;;;;;15.60;40.80;;;;;;8364753;28;19956;-48
2021/11/11 09:03:27;;;;;;;;;;;15.70;40.90;;;;;;8365107;28;19920;-49
2021/11/11 09:07:29;;;;;;;;;;;15.60;40.80;;;;;;8364349;28;20020;-48
2021/11/11 09:11:29;;;;;;;;;;;15.60;40.80;;;;;;8364298;28;19963;-50
2021/11/11 09:15:30;;;;;;;;;;;15.60;40.80;;;;;;8364505;28;19963;-48
2021/11/11 09:19:30;;;;;;;;;;;15.60;40.80;;;;;;8364767;28;20356;-52
2021/11/11 09:23:31;;;;;;;;;;;15.70;40.90;;;;;;8364009;28;19947;-48
2021/11/11 09:27:32;;;;;;;;;;;15.60;40.90;;;;;;8363958;28;20381;-47
2021/11/11 09:31:33;;;;;;;;;;;15.60;40.90;;;;;;8364137;28;20357;-48
2021/11/11 09:35:34;;;;;;;;;;;15.60;40.90;;;;;;8363577;28;19920;-48
2021/11/11 09:39:34;;;;;;;;;;;15.60;40.90;;;;;;8364187;28;19913;-49
2021/11/11 09:43:35;;;;;;;;;;;15.60;40.80;;;;;;8363817;28;20322;-49
2021/11/11 09:47:36;;;;;;;;;;;15.60;40.80;;;;;;8363294;28;19933;-49
2021/11/11 09:51:40;;;;;;;;;;;15.70;40.90;;;;;;8364076;28;19924;-49
2021/11/11 10:00:03;;;;;;;;;;;15.70;40.90;;;;;;8364447;28;19959;-48
2021/11/11 10:04:03;;;;;;;;;;;15.70;40.80;;;;;;8363652;28;19963;-47
2021/11/11 10:08:05;;;;;;;;;;;15.70;40.80;;;;;;8364056;28;19928;-48
2021/11/11 10:12:06;;;;;;;;;;;15.70;40.80;;;;;;8365047;28;19917;-48
2021/11/11 10:16:14;;;;;;;;;;;15.70;40.70;;;;;;8366176;28;19963;-47
2021/11/11 10:20:14;;;;;;;;;;;15.70;40.70;;;;;;8367733;28;19992;-49
2021/11/11 10:24:23;;;;;;;;;;;15.80;40.80;;;;;;8369789;28;19924;-52
2021/11/11 10:28:40;;;;;;;;;;;15.80;40.80;;;;;;8369854;28;19924;-49
2021/11/11 10:32:48;;;;;;;;;;;15.80;40.80;;;;;;8369406;28;19916;-47
2021/11/11 10:36:50;;;;;;;;;;;15.80;40.80;;;;;;8370011;28;19916;-49
2021/11/11 10:40:57;;;;;;;;;;;15.80;40.80;;;;;;8369370;28;20026;-48
2021/11/11 10:44:59;;;;;;;;;;;15.80;40.80;;;;;;8370121;28;20019;-48
2021/11/11 10:49:19;;;;;;;;;;;15.80;40.80;;;;;;8369227;28;20388;-49
2021/11/11 10:53:26;;;;;;;;;;;15.80;40.80;;;;;;8368546;28;19919;-50
2021/11/11 10:57:34;;;;;;;;;;;15.80;40.80;;;;;;8369343;28;19936;-49
2021/11/11 11:01:35;;;;;;;;;;;15.80;40.80;;;;;;8368732;28;19916;-50
2021/11/11 11:05:37;;;;;;;;;;;15.80;40.80;;;;;;8338572;28;20382;-49
2021/11/11 11:09:38;;;;;;;;;;;15.80;40.80;;;;;;8368774;28;19917;-49
2021/11/11 11:13:43;;;;;;;;;;;15.80;40.80;;;;;;8368348;28;19917;-49
2021/11/11 11:17:53;;;;;;;;;;;15.90;40.90;;;;;;8367987;28;19963;-47
2021/11/11 11:21:54;;;;;;;;;;;15.90;40.90;;;;;;8368390;28;19913;-48
2021/11/11 11:26:05;;;;;;;;;;;15.90;40.90;;;;;;8368073;28;19925;-53
2021/11/11 11:30:16;;;;;;;;;;;15.90;40.90;;;;;;8367199;28;19923;-47
2021/11/11 11:34:21;;;;;;;;;;;15.90;40.90;;;;;;8367648;28;19943;-52
2021/11/11 11:38:23;;;;;;;;;;;15.90;40.90;;;;;;8367355;28;19923;-49
2021/11/11 11:42:30;;;;;;;;;;;15.90;40.90;;;;;;8367666;28;19917;-48
2021/11/11 11:46:31;;;;;;;;;;;15.80;40.90;;;;;;8367710;28;19943;-54
2021/11/11 11:50:36;;;;;;;;;;;15.90;40.90;;;;;;8366852;28;20381;-51
2021/11/11 11:54:48;;;;;;;;;;;15.90;40.90;;;;;;8367283;28;19920;-50
2021/11/11 11:59:02;;;;;;;;;;;15.90;40.80;;;;;;8366899;28;19924;-49
2021/11/11 12:07:23;;;;;;;;;;;15.90;40.90;;;;;;8367058;28;19925;-51
2021/11/11 12:29:09;;;;;;;;;;;16.00;40.90;;;;;;8366114;28;19983;-49
2021/11/11 12:41:56;;;;;;;;;;;16.00;40.90;;;;;;8364798;28;19927;-48
2021/11/11 12:45:56;;;;;;;;;;;16.00;40.90;;;;;;8365824;28;19925;-47
2021/11/11 12:50:17;;;;;;;;;;;16.00;40.90;;;;;;8365393;28;19917;-48
2021/11/11 12:54:21;;;;;;;;;;;16.10;41.00;;;;;;8364669;28;19967;-48
2021/11/11 12:58:31;;;;;;;;;;;16.00;41.00;;;;;;8365090;28;19962;-47
2021/11/11 13:02:48;;;;;;;;;;;16.00;41.00;;;;;;8364416;28;19925;-49
2021/11/11 13:06:58;;;;;;;;;;;16.00;41.00;;;;;;8364870;28;19979;-48
2021/11/11 13:11:01;;;;;;;;;;;16.00;41.00;;;;;;8365260;28;20007;-48
2021/11/11 13:15:06;;;;;;;;;;;16.10;41.00;;;;;;8364218;28;20293;-48
2021/11/11 13:19:06;;;;;;;;;;;16.10;41.00;;;;;;8364427;28;19917;-48
2021/11/11 13:23:21;;;;;;;;;;;16.10;41.00;;;;;;8364413;28;20348;-50
2021/11/11 15:16:47;;;;;;;;;;;16.10;41.30;;;;;;8368793;28;19923;-49
2021/11/11 15:44:24;;;;;;;;;;;16.10;41.30;;;;;;8366690;28;20459;-51
2021/11/11 16:21:11;;;;;;;;;;;16.10;41.40;;;;;;8365995;28;20004;-49
2021/11/11 16:29:15;;;;;;;;;;;16.10;41.40;;;;;;8366016;28;19917;-49
2021/11/11 16:33:16;;;;;;;;;;;16.10;41.40;;;;;;8365238;28;19917;-50
2021/11/11 16:37:17;;;;;;;;;;;16.10;41.40;;;;;;8366400;28;20362;-50
2021/11/11 16:41:18;;;;;;;;;;;16.10;41.50;;;;;;8363695;28;19917;-52
2021/11/11 16:45:20;;;;;;;;;;;16.10;41.40;;;;;;8335800;28;19921;-48
2021/11/11 16:49:21;;;;;;;;;;;16.10;41.40;;;;;;8358552;28;19917;-46
2021/11/11 16:53:21;;;;;;;;;;;16.10;41.40;;;;;;8361264;28;20369;-49
2021/11/11 16:57:22;;;;;;;;;;;16.20;41.50;;;;;;8360780;28;20310;-49
2021/11/11 17:01:23;;;;;;;;;;;16.10;41.40;;;;;;8361294;28;20293;-51
2021/11/11 17:05:24;;;;;;;;;;;16.10;41.40;;;;;;8353904;28;19932;-52
2021/11/11 17:09:24;;;;;;;;;;;16.10;41.50;;;;;;8363451;28;19924;-49
2021/11/11 17:13:25;;;;;;;;;;;16.10;41.40;;;;;;8364468;28;19917;-51
2021/11/11 17:17:26;;;;;;;;;;;16.10;41.40;;;;;;8364028;28;19917;-52
2021/11/11 17:21:28;;;;;;;;;;;16.10;41.40;;;;;;8376986;28;19944;-49
2021/11/11 17:29:33;;;;;;;;;;;16.10;41.40;;;;;;8363317;28;20275;-49
2021/11/11 17:33:35;;;;;;;;;;;16.10;41.40;;;;;;8336169;28;19917;-52
2021/11/11 17:37:36;;;;;;;;;;;16.10;41.40;;;;;;8364072;28;19916;-51
2021/11/11 17:41:37;;;;;;;;;;;16.10;41.40;;;;;;8363396;28;19917;-48
2021/11/11 17:45:43;;;;;;;;;;;16.10;41.40;;;;;;8363321;28;19924;-50
2021/11/11 17:49:50;;;;;;;;;;;16.10;41.40;;;;;;8362430;28;19940;-48
2021/11/11 17:53:55;;;;;;;;;;;16.10;41.40;;;;;;8364025;28;20366;-51
2021/11/11 17:57:59;;;;;;;;;;;16.10;41.30;;;;;;8366586;28;19921;-52
2021/11/11 18:02:03;;;;;;;;;;;15.80;41.00;;;;;;8362667;28;19916;-54
2021/11/11 18:06:29;;;;;;;;;;;15.70;41.40;;;;;;8358946;28;19924;-48
2021/11/11 18:10:31;;;;;;;;;;;15.80;41.60;;;;;;8359162;28;20405;-50
2021/11/11 18:14:32;;;;;;;;;;;15.80;41.50;;;;;;8361510;28;20359;-50
2021/11/11 18:18:33;;;;;;;;;;;15.90;41.40;;;;;;8361691;28;19920;-50
2021/11/11 18:22:33;;;;;;;;;;;15.90;41.30;;;;;;8363301;28;19960;-50
2021/11/11 18:26:34;;;;;;;;;;;15.90;41.20;;;;;;8362204;28;20025;-50
2021/11/11 18:30:38;;;;;;;;;;;16.00;41.20;;;;;;8363201;28;20301;-51
2021/11/11 18:34:46;;;;;;;;;;;16.00;41.20;;;;;;8363020;28;19917;-50
2021/11/11 18:38:47;;;;;;;;;;;16.00;41.20;;;;;;8363535;28;20000;-51
2021/11/11 18:42:48;;;;;;;;;;;16.00;41.20;;;;;;8367712;28;19943;-51
2021/11/11 18:46:57;;;;;;;;;;;16.00;41.20;;;;;;8368681;28;19928;-49
2021/11/11 18:51:05;;;;;;;;;;;16.00;41.20;;;;;;8366704;28;20361;-50
2021/11/11 18:55:06;;;;;;;;;;;16.00;41.20;;;;;;8368385;28;19921;-50
2021/11/11 18:59:07;;;;;;;;;;;16.00;41.20;;;;;;8368889;28;20292;-48
2021/11/11 19:03:09;;;;;;;;;;;16.00;41.10;;;;;;8368565;28;19917;-50
2021/11/11 19:07:13;;;;;;;;;;;16.00;41.10;;;;;;8368446;28;19925;-48
2021/11/11 19:11:18;;;;;;;;;;;16.00;41.10;;;;;;8368343;28;19923;-50
2021/11/11 19:15:19;;;;;;;;;;;16.00;41.10;;;;;;8368507;28;19916;-47
2021/11/11 19:19:23;;;;;;;;;;;16.00;41.10;;;;;;8368038;28;20369;-52
2021/11/11 19:23:24;;;;;;;;;;;16.00;41.10;;;;;;8367718;28;19924;-52
2021/11/11 19:27:24;;;;;;;;;;;16.00;41.10;;;;;;8368040;28;19964;-47
2021/11/11 19:31:25;;;;;;;;;;;16.00;41.20;;;;;;8368163;28;19917;-48
2021/11/11 19:35:33;;;;;;;;;;;16.00;41.20;;;;;;8367298;28;19917;-47
2021/11/11 19:39:57;;;;;;;;;;;16.00;41.20;;;;;;8369906;28;19916;-50
2021/11/11 19:44:09;;;;;;;;;;;16.00;41.30;;;;;;8367655;28;19917;-51
2021/11/11 20:01:05;;;;;;;;;;;16.00;41.30;;;;;;8367015;28;19987;-51
2021/11/11 20:09:46;;;;;;;;;;;16.00;41.30;;;;;;8366153;28;20350;-52
2021/11/11 20:35:22;;;;;;;;;;;16.00;41.20;;;;;;8362114;28;19943;-47
2021/11/11 20:44:03;;;;;;;;;;;16.00;41.20;;;;;;8354897;28;20011;-47
2021/11/11 21:01:02;;;;;;;;;;;16.00;41.20;;;;;;8365235;28;19924;-47
2021/11/11 21:05:14;;;;;;;;;;;16.00;41.20;;;;;;8364438;28;19928;-48
2021/11/11 21:09:40;;;;;;;;;;;16.00;41.20;;;;;;8364723;28;20293;-49
2021/11/11 21:18:02;;;;;;;;;;;16.00;41.20;;;;;;8365285;28;19921;-49
2021/11/11 21:22:07;;;;;;;;;;;16.00;41.70;;;;;;8370857;28;19921;-49
2021/11/11 21:26:07;;;;;;;;;;;16.00;41.20;;;;;;8363965;28;19925;-49
2021/11/11 21:30:10;;;;;;;;;;;16.00;41.20;;;;;;8363844;28;20329;-48
2021/11/11 21:34:23;;;;;;;;;;;16.00;41.20;;;;;;8364719;28;20410;-49
2021/11/11 21:38:33;;;;;;;;;;;16.00;41.20;;;;;;8363699;28;19916;-49
2021/11/11 21:42:34;;;;;;;;;;;16.00;41.20;;;;;;8364281;28;19921;-49
2021/11/11 21:46:35;;;;;;;;;;;15.90;41.20;;;;;;8363945;28;19931;-48
2021/11/11 21:50:37;;;;;;;;;;;16.00;41.20;;;;;;8363095;28;20417;-49
2021/11/11 21:54:42;;;;;;;;;;;15.90;41.10;;;;;;8363885;28;20427;-49
2021/11/11 21:59:02;;;;;;;;;;;15.90;41.10;;;;;;8363737;28;20077;-49
2021/11/11 22:03:14;;;;;;;;;;;15.90;41.10;;;;;;8363225;28;20393;-48
2021/11/11 22:24:34;;;;;;;;;;;15.90;41.10;;;;;;8369854;28;19917;-53
2021/11/11 22:32:46;;;;;;;;;;;15.90;41.10;;;;;;8371171;28;19917;-47
2021/11/11 22:36:47;;;;;;;;;;;15.90;41.20;;;;;;8371757;28;20428;-49
2021/11/11 22:40:47;;;;;;;;;;;15.90;41.10;;;;;;8369694;28;19917;-48
2021/11/11 22:44:48;;;;;;;;;;;15.90;41.10;;;;;;8369382;28;19924;-48
2021/11/11 22:48:48;;;;;;;;;;;15.90;41.10;;;;;;8369278;28;19924;-47
2021/11/11 22:52:50;;;;;;;;;;;15.90;41.10;;;;;;8369372;28;19924;-52
2021/11/11 23:00:58;;;;;;;;;;;15.90;41.10;;;;;;8369688;28;19917;-52
2021/11/11 23:09:46;;;;;;;;;;;15.90;41.10;;;;;;8294124;28;20335;-49
2021/11/11 23:13:59;;;;;;;;;;;15.80;41.10;;;;;;8367374;28;20442;-49
2021/11/11 23:34:38;;;;;;;;;;;15.80;41.10;;;;;;8339138;28;19924;-49
2021/11/11 23:38:46;;;;;;;;;;;15.80;41.00;;;;;;8359841;28;20003;-47
2021/11/11 23:42:48;;;;;;;;;;;15.80;41.00;;;;;;8374693;28;19970;-52
2021/11/11 23:46:50;;;;;;;;;;;15.80;41.00;;;;;;8367779;28;19951;-48
2021/11/11 23:51:03;;;;;;;;;;;15.80;41.10;;;;;;8367215;28;19921;-50
